TimeEDT,TemperatureF,Dew PointF,Humidity,Sea Level PressureIn,VisibilityMPH,Wind Direction,Wind SpeedMPH,Gust SpeedMPH,PrecipitationIn,Events,Conditions,WindDirDegrees,DateUTC
12:51 AM,60.1,57.0,90,30.14,9.0,SW,6.9,-,N/A,,Clear,230,2013-04-10 04:51:00
1:51 AM,60.1,57.9,93,30.12,9.0,SW,9.2,-,N/A,,Clear,230,2013-04-10 05:51:00
2:51 AM,59.0,55.9,90,30.10,7.0,WSW,5.8,-,N/A,,Clear,240,2013-04-10 06:51:00
3:51 AM,57.9,55.9,93,30.09,6.0,SW,6.9,-,N/A,,Clear,230,2013-04-10 07:51:00
4:51 AM,59.0,57.0,93,30.10,9.0,WSW,8.1,-,N/A,,Clear,240,2013-04-10 08:51:00
5:51 AM,59.0,55.9,90,30.11,8.0,WSW,9.2,-,N/A,,Clear,240,2013-04-10 09:51:00
6:51 AM,59.0,57.0,93,30.12,6.0,WSW,9.2,-,N/A,,Clear,240,2013-04-10 10:51:00
7:51 AM,60.1,57.9,93,30.14,7.0,SW,10.4,-,N/A,,Clear,230,2013-04-10 11:51:00
8:51 AM,62.1,59.0,90,30.14,9.0,WSW,11.5,-,N/A,,Clear,240,2013-04-10 12:51:00
9:01 AM,60.8,57.2,88,30.14,9.0,WSW,9.2,-,N/A,,Scattered Clouds,240,2013-04-10 13:01:00
9:12 AM,60.8,57.2,88,30.14,9.0,WSW,9.2,-,N/A,,Mostly Cloudy,240,2013-04-10 13:12:00
9:51 AM,62.1,57.9,86,30.14,10.0,SW,9.2,-,N/A,,Scattered Clouds,230,2013-04-10 13:51:00
10:51 AM,64.0,57.9,80,30.15,10.0,WSW,11.5,16.1,N/A,,Clear,240,2013-04-10 14:51:00
11:51 AM,64.9,57.9,78,30.14,10.0,SW,9.2,-,N/A,,Clear,230,2013-04-10 15:51:00
12:51 PM,66.0,57.9,75,30.12,10.0,SW,8.1,-,N/A,,Clear,220,2013-04-10 16:51:00
1:51 PM,66.0,57.9,75,30.10,10.0,SW,10.4,-,N/A,,Clear,230,2013-04-10 17:51:00
2:51 PM,66.9,57.9,73,30.09,10.0,SW,10.4,-,N/A,,Clear,230,2013-04-10 18:51:00
3:51 PM,66.9,57.0,70,30.06,10.0,SW,12.7,18.4,N/A,,Clear,230,2013-04-10 19:51:00
4:51 PM,66.0,57.0,73,30.04,10.0,SW,15.0,23.0,N/A,,Clear,230,2013-04-10 20:51:00
5:51 PM,64.0,57.0,78,30.04,10.0,SW,12.7,20.7,N/A,,Clear,220,2013-04-10 21:51:00
6:51 PM,62.1,57.0,84,30.03,10.0,SW,13.8,20.7,N/A,,Clear,230,2013-04-10 22:51:00
7:51 PM,61.0,57.0,87,30.03,10.0,SW,10.4,-,N/A,,Clear,230,2013-04-10 23:51:00
8:51 PM,61.0,57.0,87,30.02,10.0,SW,12.7,-,N/A,,Clear,230,2013-04-11 00:51:00
9:51 PM,62.1,57.0,84,30.03,10.0,WSW,12.7,20.7,N/A,,Clear,240,2013-04-11 01:51:00
10:51 PM,61.0,57.0,87,30.03,10.0,WSW,11.5,19.6,N/A,,Clear,240,2013-04-11 02:51:00
11:51 PM,60.1,55.9,86,30.03,10.0,WSW,12.7,18.4,N/A,,Clear,240,2013-04-11 03:51:00